Flight Track Log - Related Links

Times and Time Zones

All times are in EDT time to prevent confusion due to time zone crossing. See the JBU1475 flight status page for this flight to view local times or setup timezone preferences in your user account.

Time Position Orientation Groundspeed Altitude Reporting Facility
EDT Latitude Longitude Course Direction KTS MPH feet Rate Location/Type
Wed 08:41:42 PM 42.3920 -70.9920 20° North 171 197 1,300  Level FlightAware ADS-B
Wed 08:41:57 PM 42.4030 -70.9850 25° Northeast 180 207 1,700 1,067 Climbing FlightAware ADS-B
Wed 08:42:27 PM 42.4300 -70.9710 21° North 215 247 2,100 750 Climbing FlightAware ADS-B
Wed 08:42:37 PM 42.4380 -70.9620 40° Northeast 236 272 2,200 960 Climbing FlightAware ADS-B
Wed 08:42:52 PM 42.4460 -70.9410 63° Northeast 262 302 2,500 1,867 Climbing FlightAware ADS-B
Wed 08:43:22 PM 42.4550 -70.8910 76° East 282 325 3,600 2,250 Climbing FlightAware ADS-B
Wed 08:43:32 PM 42.4580 -70.8740 77° East 289 333 4,000 2,700 Climbing FlightAware ADS-B
Wed 08:44:02 PM 42.4670 -70.8200 77° East 294 338 5,400 2,727 Climbing FlightAware ADS-B
Wed 08:44:27 PM 42.4760 -70.7740 75° East 297 342 6,500 2,850 Climbing FlightAware ADS-B
Wed 08:44:42 PM 42.4860 -70.7520 58° Northeast 288 331 7,300 3,200 Climbing FlightAware ADS-B
Wed 08:44:57 PM 42.5020 -70.7370 35° Northeast 279 321 8,100 2,600 Climbing FlightAware ADS-B
Wed 08:45:12 PM 42.5210 -70.7310 13° North 273 314 8,600 2,100 Climbing FlightAware ADS-B
Wed 08:45:37 PM 42.5510 -70.7460 340° North 272 313 9,500 2,250 Climbing FlightAware ADS-B
Wed 08:45:52 PM 42.5620 -70.7650 308° West 270 311 10,100 1,800 Climbing FlightAware ADS-B
Wed 08:46:27 PM 42.5860 -70.8200 301° West 295 339 11,000 1,247 Climbing FlightAware ADS-B
Wed 08:47:09 PM 42.6180 -70.8940 300° West 335 386 11,700 1,606 Climbing FlightAware ADS-B
Wed 08:49:45 PM 42.7390 -71.1760 300° West 362 417 16,300 1,791 Climbing FlightAware ADS-B
Wed 08:50:30 PM 42.7790 -71.2760 299° West 367 422 17,700 1,867 Climbing FlightAware ADS-B
Wed 08:51:15 PM 42.7920 -71.3780 280° West 373 429 19,100 1,694 Climbing FlightAware ADS-B
Wed 08:51:55 PM 42.8010 -71.4730 277° West 379 436 20,100 1,050 Climbing FlightAware ADS-B
Wed 08:52:35 PM 42.8100 -71.5690 277° West 400 460 20,500 1,050 Climbing FlightAware ADS-B
Wed 08:53:15 PM 42.8200 -71.6720 278° West 401 461 21,500 1,482 Climbing FlightAware ADS-B
Wed 08:54:00 PM 42.8300 -71.7840 277° West 400 460 22,600 1,200 Climbing FlightAware ADS-B
Wed 08:54:40 PM 42.8400 -71.8850 278° West 409 471 23,200 988 Climbing FlightAware ADS-B
Wed 08:55:25 PM 42.8510 -72.0010 277° West 414 476 24,000 1,050 Climbing FlightAware ADS-B
Wed 08:56:00 PM 42.8590 -72.0870 277° West 417 480 24,600 929 Climbing FlightAware ADS-B
Wed 08:56:49 PM 42.8710 -72.2220 277° West 425 489 25,300 1,043 Climbing FlightAware ADS-B
Wed 08:57:32 PM 42.8810 -72.3350 277° West 423 487 26,200 1,116 Climbing FlightAware ADS-B
Wed 08:58:15 PM 42.8910 -72.4500 277° West 428 493 26,900 940 Climbing FlightAware ADS-B
Wed 08:58:55 PM 42.9010 -72.5580 277° West 426 490 27,500 805 Climbing FlightAware ADS-B
Wed 08:59:37 PM 42.9110 -72.6710 277° West 432 497 28,000 815 Climbing FlightAware ADS-B
Wed 09:00:16 PM 42.9180 -72.7560 276° West 431 496 28,600 977 Climbing FlightAware ADS-B
Wed 09:01:03 PM 42.9300 -72.9010 276° West 427 491 29,400 614 Climbing FlightAware ADS-B
Wed 09:01:44 PM 42.9380 -72.9970 277° West 430 495 29,500 77 Climbing FlightAware ADS-B
Wed 09:02:21 PM 42.9440 -73.0820 276° West 430 495 29,500 976 Level FlightAware ADS-B
Wed 09:03:02 PM 42.9560 -73.2120 277° West 30,800 1,395 Climbing FlightAware ADS-B
Wed 09:03:47 PM 42.9660 -73.3390 276° West 428 493 31,500 847 Climbing FlightAware ADS-B
Wed 09:04:27 PM 42.9750 -73.4490 276° West 423 487 32,000 429 Climbing FlightAware ADS-B
Wed 09:04:57 PM 42.9810 -73.5280 276° West 421 484 32,000  Level FlightAware ADS-B
Wed 09:05:54 PM 42.9930 -73.6730 277° West 423 487 32,000  Level FlightAware ADS-B
Wed 09:06:39 PM 43.0020 -73.7960 276° West 424 488 32,000  Level FlightAware ADS-B
Wed 09:07:22 PM 43.0110 -73.9130 276° West 427 491 32,000  Level FlightAware ADS-B
Wed 09:08:02 PM 43.0190 -74.0210 276° West 427 491 32,000  Level FlightAware ADS-B
Wed 09:08:42 PM 43.0270 -74.1290 276° West 428 493 32,000  Level FlightAware ADS-B
Wed 09:09:26 PM 43.0360 -74.2490 276° West 427 491 32,000  Level FlightAware ADS-B
Wed 09:10:06 PM 43.0440 -74.3530 276° West 426 490 32,000  Level FlightAware ADS-B
Wed 09:10:46 PM 43.0510 -74.4610 275° West 426 490 32,000  Level FlightAware ADS-B
Wed 09:11:36 PM 43.0610 -74.5970 276° West 426 490 32,000  Level FlightAware ADS-B
Wed 09:12:18 PM 43.0680 -74.7070 275° West 428 493 32,000  Level FlightAware ADS-B
Wed 09:12:58 PM 43.0760 -74.8150 276° West 428 493 32,000  Level FlightAware ADS-B
Wed 09:13:42 PM 43.0840 -74.9350 275° West 427 491 32,000  Level FlightAware ADS-B
Wed 09:14:22 PM 43.0910 -75.0400 275° West 428 493 32,000  Level FlightAware ADS-B
Wed 09:15:04 PM 43.0980 -75.1550 275° West 428 493 32,000  Level FlightAware ADS-B
Wed 09:15:48 PM 43.1050 -75.2730 275° West 427 491 32,000  Level FlightAware ADS-B
Wed 09:16:28 PM 43.1120 -75.3800 275° West 426 490 32,000  Level FlightAware ADS-B
Wed 09:16:59 PM 43.1170 -75.4570 275° West 425 489 32,000  Level FlightAware ADS-B
Wed 09:19:46 PM 43.1370 -75.8470 274° West 426 490 32,000  Level FlightAware ADS-B
Wed 09:20:22 PM 43.1500 -76.0100 276° West 430 495 32,000  Level FlightAware ADS-B
Wed 09:20:53 PM 43.1540 -76.0920 274° West 430 495 32,000  Level FlightAware ADS-B
Wed 09:21:54 PM 43.1560 -76.2600 271° West 432 497 32,000  Level FlightAware ADS-B
Wed 09:22:22 PM 43.1500 -76.3360 264° West 434 499 32,000  Level FlightAware ADS-B
Wed 09:22:50 PM 43.1430 -76.4120 263° West 432 497 32,000  Level FlightAware ADS-B
Wed 09:23:38 PM 43.1320 -76.5410 263° West 433 498 32,000  Level FlightAware ADS-B
Wed 09:24:08 PM 43.1250 -76.6240 263° West 434 499 32,000  Level FlightAware ADS-B
Wed 09:25:50 PM 43.1010 -76.8940 263° West 435 501 32,000  Level FlightAware ADS-B
Wed 09:26:35 PM 43.0900 -77.0140 263° West 436 502 32,000  Level FlightAware ADS-B
Wed 09:27:20 PM 43.0790 -77.1360 263° West 437 503 32,000  Level FlightAware ADS-B
Wed 09:28:00 PM 43.0690 -77.2440 263° West 438 504 32,000  Level FlightAware ADS-B
Wed 09:28:43 PM 43.0570 -77.3710 263° West 438 504 32,000  Level FlightAware ADS-B
Wed 09:29:29 PM 43.0450 -77.5000 263° West 437 503 32,000  Level FlightAware ADS-B
Wed 09:30:09 PM 43.0340 -77.6080 262° West 436 502 32,000  Level FlightAware ADS-B
Wed 09:30:49 PM 43.0230 -77.7210 262° West 435 501 32,000  Level FlightAware ADS-B
Wed 09:31:35 PM 43.0110 -77.8450 263° West 436 502 32,000  Level FlightAware ADS-B
Wed 09:32:17 PM 43.0000 -77.9570 262° West 437 503 32,000  Level FlightAware ADS-B
Wed 09:32:55 PM 42.9890 -78.0630 262° West 437 503 32,000  Level FlightAware ADS-B
Wed 09:33:39 PM 42.9770 -78.1840 262° West 439 505 32,000  Level FlightAware ADS-B
Wed 09:34:17 PM 42.9670 -78.2860 262° West 438 504 32,000  Level FlightAware ADS-B
Wed 09:34:45 PM 42.9590 -78.3580 261° West 438 504 32,000  Level FlightAware ADS-B
Wed 09:37:10 PM 42.9350 -78.7600 265° West 439 505 32,000  Level FlightAware ADS-B
Wed 09:37:50 PM 42.9410 -78.8690 274° West 440 506 32,000  Level FlightAware ADS-B
Wed 09:38:30 PM 42.9470 -78.9810 274° West 439 505 32,000  Level FlightAware ADS-B
Wed 09:39:15 PM 42.9530 -79.1040 274° West 439 505 32,000  Level FlightAware ADS-B
Wed 09:39:55 PM 42.9590 -79.2150 274° West 441 507 32,000  Level FlightAware ADS-B
Wed 09:40:40 PM 42.9650 -79.3400 274° West 443 510 32,000  Level FlightAware ADS-B
Wed 09:41:20 PM 42.9700 -79.4520 274° West 443 510 32,000  Level FlightAware ADS-B
Wed 09:42:05 PM 42.9760 -79.5780 274° West 444 511 32,000  Level FlightAware ADS-B
Wed 09:42:45 PM 42.9810 -79.6890 274° West 444 511 32,000  Level FlightAware ADS-B
Wed 09:43:30 PM 42.9870 -79.8150 274° West 443 510 32,000  Level FlightAware ADS-B
Wed 09:44:10 PM 42.9920 -79.9260 274° West 442 509 32,000  Level FlightAware ADS-B
Wed 09:44:50 PM 42.9960 -80.0380 273° West 442 509 32,000  Level FlightAware ADS-B
Wed 09:45:30 PM 43.0010 -80.1480 274° West 441 507 32,000  Level FlightAware ADS-B
Wed 09:46:15 PM 43.0060 -80.2710 273° West 440 506 32,000  Level FlightAware ADS-B
Wed 09:46:55 PM 43.0100 -80.3770 273° West 438 504 32,000  Level FlightAware ADS-B
Wed 09:47:40 PM 43.0150 -80.5040 273° West 438 504 32,000  Level FlightAware ADS-B
Wed 09:48:20 PM 43.0190 -80.6180 273° West 439 505 32,000  Level FlightAware ADS-B
Wed 09:49:02 PM 43.0240 -80.7360 273° West 440 506 32,000  Level FlightAware ADS-B
Wed 09:49:46 PM 43.0280 -80.8600 273° West 441 507 32,000  Level FlightAware ADS-B
Wed 09:50:30 PM 43.0320 -80.9770 273° West 443 510 32,000  Level FlightAware ADS-B
Wed 09:51:10 PM 43.0360 -81.0880 273° West 443 510 32,000  Level FlightAware ADS-B
Wed 09:51:50 PM 43.0450 -81.1990 276° West 445 512 32,000  Level FlightAware ADS-B
Wed 09:52:30 PM 43.0610 -81.3080 281° West 444 511 32,000  Level FlightAware ADS-B
Wed 09:53:15 PM 43.0790 -81.4310 281° West 445 512 32,000  Level FlightAware ADS-B
Wed 09:54:01 PM 43.0970 -81.5560 281° West 446 513 32,000  Level FlightAware ADS-B
Wed 09:54:40 PM 43.1130 -81.6670 281° West 446 513 32,000  Level FlightAware ADS-B
Wed 09:55:20 PM 43.1280 -81.7760 281° West 446 513 32,000  Level FlightAware ADS-B
Wed 09:56:04 PM 43.1460 -81.9050 281° West 445 512 32,000  Level FlightAware ADS-B
Wed 09:56:46 PM 43.1620 -82.0220 281° West 445 512 32,000  Level FlightAware ADS-B
Wed 09:57:28 PM 43.1780 -82.1360 281° West 443 510 32,000  Level FlightAware ADS-B
Wed 09:58:11 PM 43.1940 -82.2550 280° West 443 510 32,000  Level FlightAware ADS-B
Wed 09:58:54 PM 43.2100 -82.3740 280° West 443 510 32,000  Level FlightAware ADS-B
Wed 09:59:32 PM 43.2240 -82.4800 280° West 444 511 32,000  Level FlightAware ADS-B
Wed 10:02:31 PM 43.2560 -82.9710 275° West 440 506 32,000  Level FlightAware ADS-B
Wed 10:03:36 PM 43.2550 -83.1560 270° West 439 505 32,000  Level FlightAware ADS-B
Wed 10:04:22 PM 43.2550 -83.2810 270° West 441 507 32,000  Level FlightAware ADS-B
Wed 10:05:00 PM 43.2540 -83.3890 269° West 442 509 32,000  Level FlightAware ADS-B
Wed 10:08:30 PM 43.2480 -83.9760 269° West 446 513 32,000  Level FlightAware ADS-B
Wed 10:09:05 PM 43.2470 -84.0760 269° West 447 514 32,000  Level FlightAware ADS-B
Wed 10:09:50 PM 43.2450 -84.2050 269° West 447 514 32,000  Level FlightAware ADS-B
Wed 10:10:30 PM 43.2430 -84.3180 269° West 445 512 32,000  Level FlightAware ADS-B
Wed 10:11:38 PM 43.2400 -84.4780 269° West 445 512 32,000  Level FlightAware ADS-B
Wed 10:12:23 PM 43.2380 -84.6340 269° West 443 510 32,000  Level FlightAware ADS-B
Wed 10:13:04 PM 43.2360 -84.7480 269° West 442 509 32,000  Level FlightAware ADS-B
Wed 10:13:48 PM 43.2340 -84.8740 269° West 441 507 32,000  Level FlightAware ADS-B
Wed 10:14:29 PM 43.2320 -84.9860 269° West 442 509 32,000 231 Level FlightAware ADS-B
Wed 10:15:06 PM 43.2300 -85.0900 269° West 446 513 32,300 723 Climbing FlightAware ADS-B
Wed 10:15:52 PM 43.2270 -85.2200 268° West 444 511 33,000 809 Climbing FlightAware ADS-B
Wed 10:16:35 PM 43.2240 -85.3400 268° West 442 509 33,500 723 Climbing FlightAware ADS-B
Wed 10:17:15 PM 43.2220 -85.4510 269° West 439 505 34,000 357 Climbing FlightAware ADS-B
Wed 10:17:59 PM 43.2190 -85.5730 268° West 436 502 34,000  Level FlightAware ADS-B
Wed 10:18:37 PM 43.2160 -85.6780 268° West 439 505 34,000  Level FlightAware ADS-B
Wed 10:19:24 PM 43.2120 -85.8100 268° West 442 509 34,000  Level FlightAware ADS-B
Wed 10:20:04 PM 43.2090 -85.9230 268° West 443 510 34,000  Level FlightAware ADS-B
Wed 10:20:48 PM 43.2060 -86.0460 268° West 443 510 34,000  Level FlightAware ADS-B
Wed 10:21:27 PM 43.2030 -86.1490 268° West 441 507 34,000  Level FlightAware ADS-B
Wed 10:22:21 PM 43.1980 -86.3060 268° West 440 506 34,000  Level FlightAware ADS-B
Wed 10:23:06 PM 43.1940 -86.4280 267° West 439 505 34,000  Level FlightAware ADS-B
Wed 10:24:05 PM 43.1880 -86.5900 267° West 439 505 34,000  Level FlightAware ADS-B
Wed 10:24:43 PM 43.1850 -86.6930 268° West 439 505 34,000  Level FlightAware ADS-B
Wed 10:25:21 PM 43.1800 -86.8030 266° West 439 505 34,000  Level FlightAware ADS-B
Wed 10:26:05 PM 43.1760 -86.9280 268° West 438 504 34,000  Level FlightAware ADS-B
Wed 10:26:51 PM 43.1710 -87.0490 267° West 438 504 34,000  Level FlightAware ADS-B
Wed 10:27:33 PM 43.1670 -87.1660 267° West 440 506 34,000  Level FlightAware ADS-B
Wed 10:28:14 PM 43.1620 -87.2770 267° West 441 507 34,000  Level FlightAware ADS-B
Wed 10:28:56 PM 43.1570 -87.3970 267° West 439 505 34,000  Level FlightAware ADS-B
Wed 10:29:36 PM 43.1530 -87.5060 267° West 438 504 34,000  Level FlightAware ADS-B
Wed 10:30:20 PM 43.1470 -87.6310 266° West 437 503 34,000  Level FlightAware ADS-B
Wed 10:31:04 PM 43.1420 -87.7530 267° West 436 502 34,000 -69 Level FlightAware ADS-B
Wed 10:31:47 PM 43.1370 -87.8710 267° West 438 504 33,900 -73 Descending FlightAware ADS-B
Wed 10:32:26 PM 43.1320 -87.9740 266° West 441 507 33,900 72 Level FlightAware ADS-B
Wed 10:33:10 PM 43.1260 -88.1020 266° West 444 511 34,000 71 Climbing FlightAware ADS-B
Wed 10:33:51 PM 43.1200 -88.2150 266° West 442 509 34,000  Level FlightAware ADS-B
Wed 10:34:48 PM 43.1180 -88.3740 269° West 439 505 34,000  Level FlightAware ADS-B
Wed 10:35:28 PM 43.1200 -88.4860 271° West 440 506 34,000  Level FlightAware ADS-B
Wed 10:36:12 PM 43.1220 -88.6060 271° West 441 507 34,000  Level FlightAware ADS-B
Wed 10:38:11 PM 43.1270 -88.9390 271° West 439 505 34,000  Level FlightAware ADS-B
Wed 10:38:49 PM 43.1280 -89.0440 271° West 436 502 34,000  Level FlightAware ADS-B
Wed 10:39:26 PM 43.1290 -89.1480 271° West 435 501 34,000  Level FlightAware ADS-B
Wed 10:39:59 PM 43.1300 -89.2380 271° West 432 497 34,000  Level FlightAware ADS-B
Wed 10:40:39 PM 43.1310 -89.3470 271° West 421 484 34,000  Level FlightAware ADS-B
Wed 10:41:23 PM 43.1320 -89.4620 271° West 418 481 34,000  Level FlightAware ADS-B
Wed 10:41:56 PM 43.1320 -89.5490 270° West 422 486 34,000  Level FlightAware ADS-B
Wed 10:42:35 PM 43.1330 -89.6540 271° West 415 478 34,000 -36 Level FlightAware ADS-B
Wed 10:44:44 PM 43.1340 -89.9870 270° West 415 478 33,900  Descending FlightAware ADS-B
Wed 10:45:28 PM 43.1350 -90.1050 271° West 418 481 34,000 74 Climbing FlightAware ADS-B
Wed 10:46:05 PM 43.1350 -90.1980 270° West 418 481 34,000 62 Level FlightAware ADS-B
Wed 10:47:05 PM 43.1350 -90.3570 270° West 413 475 34,100  Climbing FlightAware ADS-B
Wed 10:47:50 PM 43.1350 -90.4750 270° West 407 468 34,000 -71 Descending FlightAware ADS-B
Wed 10:48:29 PM 43.1340 -90.5760 269° West 405 466 34,000  Level FlightAware ADS-B
Wed 10:49:09 PM 43.1340 -90.6790 270° West 403 464 34,000 -71 Level FlightAware ADS-B
Wed 10:49:53 PM 43.1340 -90.7910 270° West 402 463 33,900  Descending FlightAware ADS-B
Wed 10:50:37 PM 43.1330 -90.9010 269° West 407 468 34,000 71 Climbing FlightAware ADS-B
Wed 10:51:18 PM 43.1330 -91.0080 270° West 419 482 34,000  Level FlightAware ADS-B
Wed 10:52:01 PM 43.1320 -91.1210 269° West 418 481 34,000  Level FlightAware ADS-B
Wed 10:52:44 PM 43.1310 -91.2350 269° West 417 480 34,000  Level FlightAware ADS-B
Wed 10:53:23 PM 43.1300 -91.3380 269° West 418 481 34,000  Level FlightAware ADS-B
Wed 10:54:07 PM 43.1290 -91.4540 269° West 419 482 34,000  Level FlightAware ADS-B
Wed 10:54:49 PM 43.1280 -91.5660 269° West 419 482 34,000  Level FlightAware ADS-B
Wed 10:55:29 PM 43.1270 -91.6720 269° West 420 483 34,000  Level FlightAware ADS-B
Wed 10:56:13 PM 43.1250 -91.7900 269° West 422 486 34,000 -71 Level FlightAware ADS-B
Wed 10:56:54 PM 43.1240 -91.8970 269° West 427 491 33,900  Descending FlightAware ADS-B
Wed 10:57:35 PM 43.1220 -92.0090 269° West 434 499 34,000 71 Climbing FlightAware ADS-B
Wed 10:58:19 PM 43.1200 -92.1300 269° West 435 501 34,000 71 Level FlightAware ADS-B
Wed 10:59:00 PM 43.1190 -92.2390 269° West 432 497 34,100  Climbing FlightAware ADS-B
Wed 10:59:43 PM 43.1160 -92.3590 268° West 425 489 34,000 -76 Descending FlightAware ADS-B
Wed 11:00:19 PM 43.1150 -92.4540 269° West 422 486 34,000  Level FlightAware ADS-B
Wed 11:01:07 PM 43.1120 -92.5810 268° West 419 482 34,000  Level FlightAware ADS-B
Wed 11:01:48 PM 43.1100 -92.6920 269° West 417 480 34,000  Level FlightAware ADS-B
Wed 11:02:30 PM 43.1080 -92.8000 269° West 414 476 34,000  Level FlightAware ADS-B
Wed 11:03:12 PM 43.1050 -92.9090 268° West 412 474 34,000 -71 Level FlightAware ADS-B
Wed 11:03:54 PM 43.1030 -93.0200 269° West 413 475 33,900 -70 Descending FlightAware ADS-B
Wed 11:04:38 PM 43.1000 -93.1340 268° West 418 481 33,900 71 Level FlightAware ADS-B
Wed 11:05:18 PM 43.0970 -93.2410 268° West 419 482 34,000 73 Climbing FlightAware ADS-B
Wed 11:06:00 PM 43.0930 -93.3530 267° West 419 482 34,000  Level FlightAware ADS-B
Wed 11:06:44 PM 43.0820 -93.4650 262° West 417 480 34,000  Level FlightAware ADS-B
Wed 11:07:20 PM 43.0740 -93.5580 263° West 415 478 34,000  Level FlightAware ADS-B
Wed 11:08:04 PM 43.0620 -93.6760 262° West 415 478 34,000  Level FlightAware ADS-B
Wed 11:08:46 PM 43.0520 -93.7840 263° West 415 478 34,000  Level FlightAware ADS-B
Wed 11:09:32 PM 43.0410 -93.9030 263° West 415 478 34,000  Level FlightAware ADS-B
Wed 11:10:08 PM 43.0320 -93.9970 263° West 415 478 34,000  Level FlightAware ADS-B
Wed 11:10:52 PM 43.0200 -94.1110 262° West 415 478 34,000  Level FlightAware ADS-B
Wed 11:11:34 PM 43.0090 -94.2190 262° West 414 476 34,000  Level FlightAware ADS-B
Wed 11:12:18 PM 42.9980 -94.3310 262° West 414 476 34,000  Level FlightAware ADS-B
Wed 11:12:51 PM 42.9891 -94.4202 262° West 416 479 34,000  Level FlightAware ADS-B
Wed 11:13:21 PM 42.9811 -94.4978 262° West 417 480 34,000  Level FlightAware ADS-B
Wed 11:13:54 PM 42.9722 -94.5839 262° West 418 481 34,000  Level FlightAware ADS-B
Wed 11:14:27 PM 42.9635 -94.6691 262° West 419 482 34,000  Level FlightAware ADS-B
Wed 11:14:58 PM 42.9551 -94.7493 262° West 419 482 34,000  Level FlightAware ADS-B
Wed 11:15:29 PM 42.9466 -94.8307 262° West 420 483 34,000  Level FlightAware ADS-B
Wed 11:15:59 PM 42.9381 -94.9099 262° West 420 483 34,000  Level FlightAware ADS-B
Wed 11:16:30 PM 42.9295 -94.9903 262° West 420 483 34,000  Level FlightAware ADS-B
Wed 11:17:00 PM 42.9211 -95.0688 262° West 420 483 34,000  Level FlightAware ADS-B
Wed 11:17:30 PM 42.9125 -95.1479 262° West 420 483 34,000  Level FlightAware ADS-B
Wed 11:18:00 PM 42.9038 -95.2272 262° West 421 484 34,000  Level FlightAware ADS-B
Wed 11:18:31 PM 42.8950 -95.3080 262° West 420 483 34,000  Level FlightAware ADS-B
Wed 11:19:07 PM 42.8848 -95.4004 261° West 420 483 34,000  Level FlightAware ADS-B
Wed 11:19:37 PM 42.8760 -95.4799 261° West 419 482 34,000  Level FlightAware ADS-B
Wed 11:20:08 PM 42.8671 -95.5587 261° West 418 481 34,000  Level FlightAware ADS-B
Wed 11:20:38 PM 42.8580 -95.6389 261° West 417 480 34,000  Level FlightAware ADS-B
Wed 11:21:09 PM 42.8490 -95.7184 261° West 417 480 34,000  Level FlightAware ADS-B
Wed 11:21:44 PM 42.8389 -95.8079 261° West 417 480 34,000  Level FlightAware ADS-B
Wed 11:22:14 PM 42.8298 -95.8860 261° West 415 478 34,000  Level FlightAware ADS-B
Wed 11:22:44 PM 42.8208 -95.9640 261° West 414 476 34,000  Level FlightAware ADS-B
Wed 11:23:15 PM 42.8116 -96.0433 261° West 413 475 34,000  Level FlightAware ADS-B
Wed 11:23:49 PM 42.8016 -96.1291 261° West 414 476 34,000  Level FlightAware ADS-B
Wed 11:24:19 PM 42.7924 -96.2075 261° West 414 476 34,000  Level FlightAware ADS-B
Wed 11:24:49 PM 42.7833 -96.2842 261° West 415 478 34,000  Level FlightAware ADS-B
Wed 11:25:25 PM 42.7724 -96.3753 261° West 415 478 34,000  Level FlightAware ADS-B
Wed 11:25:55 PM 42.7628 -96.4549 261° West 417 480 34,000  Level FlightAware ADS-B
Wed 11:26:31 PM 42.7516 -96.5472 261° West 416 479 34,000  Level FlightAware ADS-B
Wed 11:27:03 PM 42.7415 -96.6294 261° West 415 478 34,000  Level FlightAware ADS-B
Wed 11:27:47 PM 42.7278 -96.7417 261° West 415 478 34,000  Level FlightAware ADS-B
Wed 11:28:21 PM 42.7172 -96.8276 260° West 416 479 34,000  Level FlightAware ADS-B
Wed 11:28:51 PM 42.7075 -96.9054 260° West 416 479 34,000  Level FlightAware ADS-B
Wed 11:29:21 PM 42.6978 -96.9829 260° West 417 480 34,000  Level FlightAware ADS-B
Wed 11:29:52 PM 42.6877 -97.0631 260° West 417 480 34,000  Level FlightAware ADS-B
Wed 11:30:22 PM 42.6778 -97.1412 260° West 418 481 34,000  Level FlightAware ADS-B
Wed 11:30:52 PM 42.6680 -97.2188 260° West 418 481 34,000  Level FlightAware ADS-B
Wed 11:31:22 PM 42.6581 -97.2961 260° West 419 482 34,000  Level FlightAware ADS-B
Wed 11:31:53 PM 42.6478 -97.3762 260° West 420 483 34,000  Level FlightAware ADS-B
Wed 11:32:24 PM 42.6375 -97.4558 260° West 421 484 34,000  Level FlightAware ADS-B
Wed 11:32:54 PM 42.6273 -97.5339 260° West 421 484 34,000  Level FlightAware ADS-B
Wed 11:33:25 PM 42.6169 -97.6132 260° West 422 486 34,000  Level FlightAware ADS-B
Wed 11:33:55 PM 42.6064 -97.6925 260° West 422 486 34,000  Level FlightAware ADS-B
Wed 11:34:25 PM 42.5962 -97.7700 260° West 422 486 34,000  Level FlightAware ADS-B
Wed 11:34:56 PM 42.5856 -97.8498 260° West 422 486 34,000  Level FlightAware ADS-B
Wed 11:35:26 PM 42.5752 -97.9273 260° West 422 486 34,000  Level FlightAware ADS-B
Wed 11:35:56 PM 42.5646 -98.0064 260° West 421 484 34,000  Level FlightAware ADS-B
Wed 11:36:26 PM 42.5540 -98.0844 260° West 422 486 34,000  Level FlightAware ADS-B
Wed 11:36:57 PM 42.5430 -98.1657 260° West 422 486 34,000  Level FlightAware ADS-B
Wed 11:37:59 PM 42.5210 -98.3260 260° West 422 486 34,000  Level FlightAware ADS-B
Wed 11:38:47 PM 42.5037 -98.4503 259° West 422 486 34,000  Level FlightAware ADS-B
Wed 11:39:18 PM 42.4927 -98.5296 259° West 423 487 34,000  Level FlightAware ADS-B
Wed 11:39:49 PM 42.4813 -98.6112 259° West 423 487 34,000  Level FlightAware ADS-B
Wed 11:40:20 PM 42.4698 -98.6922 259° West 425 489 34,000  Level FlightAware ADS-B
Wed 11:40:51 PM 42.4567 -98.7723 258° West 425 489 34,000  Level FlightAware ADS-B
Wed 11:41:22 PM 42.4419 -98.8515 256° West 426 490 34,000  Level FlightAware ADS-B
Wed 11:41:52 PM 42.4275 -98.9297 256° West 425 489 34,000  Level FlightAware ADS-B
Wed 11:42:56 PM 42.3977 -99.0947 256° West 426 490 34,000  Level FlightAware ADS-B
Wed 11:44:54 PM 42.3422 -99.4002 256° West 430 495 34,000  Level FlightAware ADS-B
Wed 11:45:25 PM 42.3272 -99.4816 256° West 430 495 34,000  Level FlightAware ADS-B
Wed 11:45:55 PM 42.3127 -99.5602 256° West 429 494 34,000  Level FlightAware ADS-B
Wed 11:46:26 PM 42.2982 -99.6381 256° West 429 494 34,000  Level FlightAware ADS-B
Wed 11:46:56 PM 42.2833 -99.7182 256° West 429 494 34,000  Level FlightAware ADS-B
Wed 11:47:27 PM 42.2684 -99.7978 256° West 429 494 34,000  Level FlightAware ADS-B
Wed 11:48:17 PM 42.2439 -99.9276 256° West 429 494 34,000  Level FlightAware ADS-B
Wed 11:49:19 PM 42.2156 -100.0781 256° West 429 494 34,000  Level Denver Center
Wed 11:50:21 PM 42.1867 -100.2278 255° West 432 497 34,000  Level Denver Center
Wed 11:51:22 PM 42.1531 -100.4014 255° West 431 496 34,000  Level Denver Center
Wed 11:52:24 PM 42.1242 -100.5519 256° West 433 498 34,000  Level Denver Center
Wed 11:53:26 PM 42.0947 -100.7006 255° West 431 496 34,000  Level Denver Center
Wed 11:54:27 PM 42.0603 -100.8753 255° West 433 498 34,000  Level Denver Center
Thu 12:00:30 AM 41.8667 -101.8300 255° West 431 496 34,000  Level FlightAware ADS-B
Thu 12:01:01 AM 41.8499 -101.9110 254° West 432 497 34,000  Level FlightAware ADS-B
Thu 12:01:32 AM 41.8334 -101.9900 254° West 432 497 34,000  Level FlightAware ADS-B
Thu 12:02:03 AM 41.8165 -102.0700 254° West 433 498 34,000  Level FlightAware ADS-B
Thu 12:02:35 AM 41.7993 -102.1520 254° West 434 499 34,000  Level FlightAware ADS-B
Thu 12:03:14 AM 41.7781 -102.2520 254° West 437 503 34,000  Level FlightAware ADS-B
Thu 12:03:44 AM 41.7615 -102.3310 254° West 438 504 34,000  Level FlightAware ADS-B
Thu 12:04:20 AM 41.7413 -102.4250 254° West 438 504 34,000  Level FlightAware ADS-B
Thu 12:04:50 AM 41.7245 -102.5040 254° West 438 504 34,000  Level FlightAware ADS-B
Thu 12:05:24 AM 41.7058 -102.5910 254° West 439 505 34,000  Level FlightAware ADS-B
Thu 12:05:55 AM 41.6885 -102.6710 254° West 438 504 34,000  Level FlightAware ADS-B
Thu 12:06:25 AM 41.6714 -102.7500 254° West 438 504 34,000  Level FlightAware ADS-B
Thu 12:06:55 AM 41.6544 -102.8280 254° West 437 503 34,000  Level FlightAware ADS-B
Thu 12:07:26 AM 41.6374 -102.9060 254° West 436 502 34,000  Level FlightAware ADS-B
Thu 12:07:56 AM 41.6201 -102.9850 254° West 436 502 34,000  Level FlightAware ADS-B
Thu 12:08:26 AM 41.6031 -103.0620 254° West 436 502 34,000  Level FlightAware ADS-B
Thu 12:08:57 AM 41.5857 -103.1410 254° West 437 503 34,000  Level FlightAware ADS-B
Thu 12:09:27 AM 41.5684 -103.2190 254° West 437 503 34,000  Level FlightAware ADS-B
Thu 12:09:59 AM 41.5499 -103.3020 253° West 437 503 34,000  Level FlightAware ADS-B
Thu 12:10:30 AM 41.5323 -103.3810 253° West 439 505 34,000  Level FlightAware ADS-B
Thu 12:11:00 AM 41.5146 -103.4600 253° West 440 506 34,000  Level FlightAware ADS-B
Thu 12:11:30 AM 41.4972 -103.5370 253° West 440 506 34,000  Level FlightAware ADS-B
Thu 12:12:00 AM 41.4793 -103.6170 253° West 441 507 34,000  Level FlightAware ADS-B
Thu 12:12:30 AM 41.4617 -103.6950 253° West 441 507 34,000  Level FlightAware ADS-B
Thu 12:13:01 AM 41.4439 -103.7730 253° West 442 509 34,000  Level FlightAware ADS-B
Thu 12:13:31 AM 41.4261 -103.8510 253° West 443 510 34,000  Level FlightAware ADS-B
Thu 12:14:01 AM 41.4081 -103.9300 253° West 444 511 34,000  Level FlightAware ADS-B
Thu 12:14:33 AM 41.3889 -104.0130 253° West 445 512 34,000  Level FlightAware ADS-B
Thu 12:15:03 AM 41.3708 -104.0920 253° West 446 513 34,000  Level FlightAware ADS-B
Thu 12:15:33 AM 41.3524 -104.1710 253° West 445 512 34,000  Level FlightAware ADS-B
Thu 12:16:06 AM 41.3323 -104.2580 253° West 445 512 34,000  Level FlightAware ADS-B
Thu 12:16:37 AM 41.3138 -104.3370 253° West 444 511 34,000  Level FlightAware ADS-B
Thu 12:17:10 AM 41.2936 -104.4240 253° West 442 509 34,000  Level FlightAware ADS-B
Thu 12:17:41 AM 41.2751 -104.5020 253° West 441 507 34,000  Level FlightAware ADS-B
Thu 12:18:11 AM 41.2567 -104.5800 253° West 440 506 34,000  Level FlightAware ADS-B
Thu 12:18:45 AM 41.2359 -104.6680 253° West 437 503 34,000  Level FlightAware ADS-B
Thu 12:19:23 AM 41.2137 -104.7630 253° West 435 501 34,000  Level FlightAware ADS-B
Thu 12:20:13 AM 41.1901 -104.8930 256° West 434 499 34,000  Level FlightAware ADS-B
Thu 12:20:45 AM 41.1761 -104.9750 257° West 433 498 34,000  Level FlightAware ADS-B
Thu 12:21:15 AM 41.1624 -105.0540 257° West 433 498 34,000  Level FlightAware ADS-B
Thu 12:21:45 AM 41.1487 -105.1310 257° West 433 498 34,000  Level FlightAware ADS-B
Thu 12:22:26 AM 41.1300 -105.2380 257° West 432 497 34,000  Level FlightAware ADS-B
Thu 12:23:11 AM 41.1100 -105.3510 257° West 434 499 34,000  Level FlightAware ADS-B
Thu 12:23:50 AM 41.0930 -105.4490 257° West 437 503 34,000  Level FlightAware ADS-B
Thu 12:24:32 AM 41.0720 -105.5650 257° West 439 505 34,000  Level FlightAware ADS-B
Thu 12:25:12 AM 41.0530 -105.6690 256° West 440 506 34,000  Level FlightAware ADS-B
Thu 12:25:56 AM 41.0320 -105.7850 257° West 442 509 34,000  Level FlightAware ADS-B
Thu 12:26:40 AM 41.0120 -105.8960 257° West 436 502 34,000  Level FlightAware ADS-B
Thu 12:27:22 AM 40.9920 -106.0050 256° West 434 499 34,000  Level FlightAware ADS-B
Thu 12:28:19 AM 40.9650 -106.1510 256° West 434 499 34,000  Level FlightAware ADS-B
Thu 12:29:00 AM 40.9450 -106.2570 256° West 436 502 34,000  Level FlightAware ADS-B
Thu 12:29:44 AM 40.9230 -106.3720 256° West 436 502 34,000  Level FlightAware ADS-B
Thu 12:30:24 AM 40.9040 -106.4740 256° West 436 502 34,000  Level FlightAware ADS-B
Thu 12:31:02 AM 40.8890 -106.5570 257° West 436 502 34,000  Level FlightAware ADS-B
Thu 12:31:51 AM 40.8680 -106.6650 256° West 436 502 34,000  Level FlightAware ADS-B
Thu 12:32:27 AM 40.8530 -106.7440 256° West 436 502 34,000  Level FlightAware ADS-B
Thu 12:33:13 AM 40.8340 -106.8450 256° West 436 502 34,000  Level FlightAware ADS-B
Thu 12:33:52 AM 40.8180 -106.9310 256° West 436 502 34,000  Level FlightAware ADS-B
Thu 12:34:52 AM 40.7930 -107.0630 256° West 436 502 34,000  Level FlightAware ADS-B
Thu 12:35:29 AM 40.7780 -107.1440 256° West 436 502 34,000  Level FlightAware ADS-B
Thu 12:36:26 AM 40.7540 -107.2690 256° West 436 502 34,000  Level FlightAware ADS-B
Thu 12:37:04 AM 40.7040 -107.5090 255° West 444 511 34,000  Level FlightAware ADS-B
Thu 12:37:49 AM 40.6800 -107.6280 255° West 443 510 34,000  Level FlightAware ADS-B
Thu 12:38:44 AM 40.6510 -107.7730 255° West 443 510 34,000  Level FlightAware ADS-B
Thu 12:39:24 AM 40.6320 -107.8670 255° West 443 510 34,000  Level FlightAware ADS-B
Thu 12:40:06 AM 40.6080 -107.9860 255° West 443 510 34,000  Level FlightAware ADS-B
Thu 12:40:46 AM 40.5870 -108.0890 255° West 444 511 34,000  Level FlightAware ADS-B
Thu 12:41:32 AM 40.5650 -108.1970 255° West 443 510 34,000  Level FlightAware ADS-B
Thu 12:42:17 AM 40.5390 -108.3220 255° West 442 509 34,000  Level FlightAware ADS-B
Thu 12:42:57 AM 40.5170 -108.4290 255° West 442 509 34,000  Level FlightAware ADS-B
Thu 12:43:42 AM 40.4930 -108.5420 254° West 444 511 34,000  Level FlightAware ADS-B
Thu 12:44:22 AM 40.4720 -108.6410 254° West 448 516 34,000  Level FlightAware ADS-B
Thu 12:45:07 AM 40.4450 -108.7680 254° West 448 516 34,000  Level FlightAware ADS-B
Thu 12:45:44 AM 40.4270 -108.8550 255° West 447 514 34,000  Level FlightAware ADS-B
Thu 12:46:29 AM 40.4000 -108.9820 254° West 446 513 34,000  Level FlightAware ADS-B
Thu 12:47:14 AM 40.3750 -109.1000 254° West 447 514 34,000  Level FlightAware ADS-B
Thu 12:47:55 AM 40.3520 -109.2050 254° West 445 512 34,000 74 Level FlightAware ADS-B
Thu 12:48:35 AM 40.3300 -109.3090 255° West 447 514 34,100 565 Climbing FlightAware ADS-B
Thu 12:49:20 AM 40.3040 -109.4270 254° West 445 512 34,800 988 Climbing FlightAware ADS-B
Thu 12:50:00 AM 40.2820 -109.5300 254° West 443 510 35,500 878 Climbing FlightAware ADS-B
Thu 12:50:42 AM 40.2590 -109.6340 254° West 442 509 36,000 366 Climbing FlightAware ADS-B
Thu 12:51:22 AM 40.2380 -109.7310 254° West 440 506 36,000  Level FlightAware ADS-B
Thu 12:52:05 AM 40.2120 -109.8470 254° West 440 506 36,000  Level FlightAware ADS-B
Thu 12:52:45 AM 40.1890 -109.9510 254° West 438 504 36,000  Level FlightAware ADS-B
Thu 12:53:28 AM 40.1640 -110.0610 253° West 437 503 36,000  Level FlightAware ADS-B
Thu 12:54:14 AM 40.1330 -110.1740 250° West 440 506 36,000  Level FlightAware ADS-B
Thu 12:54:54 AM 40.1010 -110.2660 246° West 441 507 36,000  Level FlightAware ADS-B
Thu 12:55:34 AM 40.0660 -110.3690 246° West 442 509 36,000  Level FlightAware ADS-B
Thu 12:56:14 AM 40.0350 -110.4590 246° West 443 510 36,000  Level FlightAware ADS-B
Thu 12:56:59 AM 39.9950 -110.5740 246° West 442 509 36,000  Level FlightAware ADS-B
Thu 12:57:39 AM 39.9610 -110.6720 246° West 443 510 36,000  Level FlightAware ADS-B
Thu 12:58:23 AM 39.9229 -110.7820 246° West 446 513 36,000  Level FlightAware ADS-B
Thu 12:59:04 AM 39.8878 -110.8820 245° Southwest 446 513 36,000  Level FlightAware ADS-B
Thu 12:59:36 AM 39.8611 -110.9580 245° Southwest 446 513 36,000  Level FlightAware ADS-B
Thu 01:00:06 AM 39.8348 -111.0330 245° Southwest 446 513 36,000  Level FlightAware ADS-B
Thu 01:00:36 AM 39.8098 -111.1040 245° Southwest 448 516 36,000  Level FlightAware ADS-B
Thu 01:01:07 AM 39.7826 -111.1810 245° Southwest 449 517 36,000  Level FlightAware ADS-B
Thu 01:01:37 AM 39.7562 -111.2550 245° Southwest 450 518 36,000  Level FlightAware ADS-B
Thu 01:02:07 AM 39.7298 -111.3300 245° Southwest 450 518 36,000  Level FlightAware ADS-B
Thu 01:02:38 AM 39.7031 -111.4040 245° Southwest 450 518 36,000  Level FlightAware ADS-B
Thu 01:03:10 AM 39.6752 -111.4820 245° Southwest 450 518 36,000  Level FlightAware ADS-B
Thu 01:03:40 AM 39.6487 -111.5560 245° Southwest 449 517 36,000  Level FlightAware ADS-B
Thu 01:04:14 AM 39.6195 -111.6370 245° Southwest 448 516 36,000  Level FlightAware ADS-B
Thu 01:04:44 AM 39.5929 -111.7110 245° Southwest 448 516 36,000  Level FlightAware ADS-B
Thu 01:05:14 AM 39.5663 -111.7850 245° Southwest 448 516 36,000  Level FlightAware ADS-B
Thu 01:05:45 AM 39.5392 -111.8600 245° Southwest 448 516 36,000  Level FlightAware ADS-B
Thu 01:06:15 AM 39.5125 -111.9330 245° Southwest 448 516 36,000  Level FlightAware ADS-B
Thu 01:06:46 AM 39.4859 -112.0060 245° Southwest 447 514 36,000  Level FlightAware ADS-B
Thu 01:07:16 AM 39.4599 -112.0780 245° Southwest 447 514 36,000  Level FlightAware ADS-B
Thu 01:07:47 AM 39.4318 -112.1540 244° Southwest 448 516 36,000  Level FlightAware ADS-B
Thu 01:08:17 AM 39.4047 -112.2280 245° Southwest 449 517 36,000  Level FlightAware ADS-B
Thu 01:08:56 AM 39.3704 -112.3210 245° Southwest 452 520 36,000  Level FlightAware ADS-B
Thu 01:09:29 AM 39.3411 -112.4010 245° Southwest 454 522 36,000  Level FlightAware ADS-B
Thu 01:09:59 AM 39.3138 -112.4750 245° Southwest 455 524 36,000  Level FlightAware ADS-B
Thu 01:10:27 AM 39.2929 -112.5470 249° West 457 526 36,000  Level FlightAware ADS-B
Thu 01:10:58 AM 39.2753 -112.6270 254° West 456 525 36,000  Level FlightAware ADS-B
Thu 01:11:32 AM 39.2561 -112.7140 254° West 454 522 36,000  Level FlightAware ADS-B
Thu 01:12:10 AM 39.2337 -112.8150 254° West 455 524 36,000  Level FlightAware ADS-B
Thu 01:12:40 AM 39.2163 -112.8930 254° West 454 522 36,000  Level FlightAware ADS-B
Thu 01:13:11 AM 39.1988 -112.9720 254° West 454 522 36,000  Level FlightAware ADS-B
Thu 01:13:51 AM 39.1754 -113.0760 254° West 452 520 36,000  Level FlightAware ADS-B
Thu 01:17:23 AM 39.0510 -113.6190 254° West 450 518 36,000  Level FlightAware ADS-B
Thu 01:17:58 AM 39.0330 -113.6950 253° West 450 518 36,000  Level FlightAware ADS-B
Thu 01:18:48 AM 39.0070 -113.8040 253° West 450 518 36,000  Level FlightAware ADS-B
Thu 01:19:24 AM 38.9890 -113.8820 253° West 450 518 36,000  Level FlightAware ADS-B
Thu 01:20:11 AM 38.9640 -113.9850 253° West 450 518 36,000  Level FlightAware ADS-B
Thu 01:20:47 AM 38.9460 -114.0630 253° West 450 518 36,000  Level FlightAware ADS-B
Thu 01:21:48 AM 38.9140 -114.1960 253° West 450 518 36,000  Level FlightAware ADS-B
Thu 01:22:24 AM 38.8960 -114.2740 254° West 450 518 36,000  Level FlightAware ADS-B
Thu 01:23:12 AM 38.8710 -114.3780 253° West 450 518 36,000  Level FlightAware ADS-B
Thu 01:23:48 AM 38.8520 -114.4560 253° West 450 518 36,000  Level FlightAware ADS-B
Thu 01:24:36 AM 38.8270 -114.5610 253° West 450 518 36,000  Level FlightAware ADS-B
Thu 01:25:11 AM 38.8090 -114.6370 253° West 450 518 36,000  Level FlightAware ADS-B
Thu 01:25:49 AM 38.7890 -114.7190 253° West 450 518 36,000  Level FlightAware ADS-B
Thu 01:26:26 AM 38.7700 -114.8000 253° West 450 518 36,000  Level FlightAware ADS-B
Thu 01:27:14 AM 38.7450 -114.9040 253° West 450 518 36,000  Level FlightAware ADS-B
Thu 01:27:55 AM 38.6667 -115.2222 253° West 452 520 36,000  Level Salt Lake Center
Thu 01:28:56 AM 38.6258 -115.3861 252° West 447 514 36,000  Level Salt Lake Center
Thu 01:29:57 AM 38.5889 -115.5383 253° West 449 517 36,000  Level Salt Lake Center
Thu 01:30:58 AM 38.5511 -115.6903 252° West 449 517 36,000  Level Salt Lake Center
Thu 01:32:00 AM 38.5119 -115.8419 252° West 449 517 36,000  Level Salt Lake Center
Thu 01:33:01 AM 38.4736 -115.9936 252° West 449 517 36,000  Level Salt Lake Center
Thu 01:34:02 AM 38.4353 -116.1436 252° West 446 513 36,000  Level Salt Lake Center
Thu 01:35:03 AM 38.3961 -116.2944 252° West 447 514 36,000  Level Salt Lake Center
Thu 01:36:04 AM 38.3567 -116.4467 252° West 451 519 36,000  Level Salt Lake Center
Thu 01:37:19 AM 38.3097 -116.6269 252° West 447 514 36,000  Level Oakland Center
Thu 01:38:20 AM 38.2622 -116.8067 251° West 446 513 36,000  Level Oakland Center
Thu 01:43:33 AM 38.1070 -117.5880 251° West 428 493 36,000  Level FlightAware ADS-B
Thu 01:44:15 AM 38.1010 -117.6910 266° West 426 490 36,000  Level FlightAware ADS-B
Thu 01:44:53 AM 38.0950 -117.7750 265° West 426 490 36,000  Level FlightAware ADS-B
Thu 01:47:10 AM 38.0720 -118.1090 265° West 427 491 36,000  Level FlightAware ADS-B
Thu 01:47:58 AM 38.0650 -118.2110 265° West 427 491 36,000  Level FlightAware ADS-B
Thu 01:48:35 AM 38.0600 -118.2900 265° West 427 491 36,000  Level FlightAware ADS-B
Thu 01:49:21 AM 38.0530 -118.3880 265° West 427 491 36,000  Level FlightAware ADS-B
Thu 01:49:57 AM 38.0480 -118.4640 265° West 427 491 36,000  Level FlightAware ADS-B
Thu 01:50:44 AM 38.0410 -118.5640 265° West 427 491 36,000  Level FlightAware ADS-B
Thu 01:51:27 AM 38.0220 -118.7950 264° West 452 520 36,000  Level FlightAware ADS-B
Thu 01:52:09 AM 38.0140 -118.9030 265° West 451 519 36,000  Level FlightAware ADS-B
Thu 01:52:49 AM 38.0060 -119.0090 265° West 451 519 36,000  Level FlightAware ADS-B
Thu 01:53:34 AM 37.9970 -119.1230 264° West 450 518 36,000  Level FlightAware ADS-B
Thu 01:54:17 AM 37.9880 -119.2400 264° West 449 517 36,000  Level FlightAware ADS-B
Thu 01:54:57 AM 37.9790 -119.3430 264° West 450 518 36,000  Level FlightAware ADS-B
Thu 01:55:39 AM 37.9710 -119.4520 265° West 451 519 36,000  Level FlightAware ADS-B
Thu 01:56:02 AM 37.9655 -119.5140 264° West 451 519 36,000  Level FlightAware ADS-B
Thu 01:57:01 AM 37.9530 -119.6660 264° West 452 520 36,000 -291 Level FlightAware ADS-B
Thu 01:57:45 AM 37.9430 -119.7820 264° West 445 512 35,500 -837 Descending FlightAware ADS-B
Thu 01:58:27 AM 37.9340 -119.8920 264° West 452 520 34,800 -1,500 Descending FlightAware ADS-B
Thu 01:59:09 AM 37.9240 -120.0010 263° West 452 520 33,400 -2,302 Descending FlightAware ADS-B
Thu 01:59:53 AM 37.9140 -120.1180 264° West 454 522 31,500 -2,374 Descending FlightAware ADS-B
Thu 02:00:40 AM 37.9033 -120.2430 264° West 445 512 29,800 -2,071 Descending FlightAware ADS-B
Thu 02:01:17 AM 37.8950 -120.3330 263° West 436 502 28,600 -2,036 Descending FlightAware ADS-B
Thu 02:01:36 AM 37.8908 -120.3840 264° West 443 510 27,900 -2,024 Descending FlightAware ADS-B
Thu 02:02:40 AM 37.8770 -120.5380 264° West 409 471 25,800 -1,673 Descending FlightAware ADS-B
Thu 02:03:20 AM 37.8680 -120.6310 263° West 395 455 25,000 -1,714 Descending FlightAware ADS-B
Thu 02:04:04 AM 37.8600 -120.7360 265° West 412 474 23,400 -2,294 Descending FlightAware ADS-B
Thu 02:04:28 AM 37.8523 -120.7920 260° West 407 468 22,400 -3,517 Descending FlightAware ADS-B
Thu 02:05:02 AM 37.8350 -120.8690 254° West 401 461 20,000 -3,045 Descending FlightAware ADS-B
Thu 02:05:35 AM 37.8180 -120.9450 254° West 383 441 19,000 -1,500 Descending FlightAware ADS-B
Thu 02:06:06 AM 37.8039 -121.0070 254° West 347 399 18,400 -1,742 Descending FlightAware ADS-B
Thu 02:06:37 AM 37.7909 -121.0650 254° West 332 382 17,200 -2,239 Descending FlightAware ADS-B
Thu 02:07:13 AM 37.7758 -121.1320 254° West 314 361 15,900 -2,418 Descending FlightAware ADS-B
Thu 02:07:44 AM 37.7635 -121.1860 254° West 311 358 14,500 -2,286 Descending FlightAware ADS-B
Thu 02:08:16 AM 37.7512 -121.2410 254° West 312 359 13,500 -1,680 Descending FlightAware ADS-B
Thu 02:08:59 AM 37.7340 -121.3150 254° West 305 351 12,400 -1,590 Descending FlightAware ADS-B
Thu 02:09:39 AM 37.7190 -121.3840 255° West 304 350 11,300 -1,446 Descending FlightAware ADS-B
Thu 02:10:22 AM 37.7030 -121.4550 254° West 302 348 10,400 -907 Descending FlightAware ADS-B
Thu 02:11:05 AM 37.6860 -121.5280 254° West 287 330 10,000 -1,174 Descending FlightAware ADS-B
Thu 02:11:54 AM 37.6678 -121.6080 254° West 283 326 8,600 -1,688 Descending FlightAware ADS-B
Thu 02:12:09 AM 37.6628 -121.6300 254° West 281 323 8,200 -1,400 Descending FlightAware ADS-B
Thu 02:12:24 AM 37.6581 -121.6540 256° West 268 308 7,900 -1,000 Descending FlightAware ADS-B
Thu 02:12:39 AM 37.6534 -121.6770 256° West 259 298 7,700 -857 Descending FlightAware ADS-B
Thu 02:12:52 AM 37.6496 -121.6950 255° West 247 284 7,500 -1,034 Descending FlightAware ADS-B
Thu 02:13:08 AM 37.6452 -121.7160 255° West 237 273 7,200 -1,161 Descending FlightAware ADS-B
Thu 02:13:23 AM 37.6409 -121.7360 255° West 232 267 6,900 -1,355 Descending FlightAware ADS-B
Thu 02:13:39 AM 37.6366 -121.7560 255° West 229 264 6,500 -1,200 Descending FlightAware ADS-B
Thu 02:13:48 AM 37.6341 -121.7680 255° West 226 260 6,400 -1,200 Descending FlightAware ADS-B
Thu 02:14:04 AM 37.6302 -121.7880 256° West 223 257 6,000 -1,548 Descending FlightAware ADS-B
Thu 02:14:19 AM 37.6263 -121.8070 255° West 221 254 5,600 -1,200 Descending FlightAware ADS-B
Thu 02:14:34 AM 37.6227 -121.8260 257° West 220 253 5,400 -828 Descending FlightAware ADS-B
Thu 02:14:48 AM 37.6195 -121.8440 257° West 216 249 5,200 -828 Descending FlightAware ADS-B
Thu 02:15:03 AM 37.6160 -121.8620 256° West 212 244 5,000 -1,000 Descending FlightAware ADS-B
Thu 02:15:12 AM 37.6141 -121.8730 258° West 210 242 4,800 -1,250 Descending FlightAware ADS-B
Thu 02:15:27 AM 37.6108 -121.8910 257° West 211 243 4,500 -1,200 Descending FlightAware ADS-B
Thu 02:15:42 AM 37.6077 -121.9090 258° West 214 246 4,200 -968 Descending FlightAware ADS-B
Thu 02:15:58 AM 37.6047 -121.9280 259° West 208 239 4,000 -750 Descending FlightAware ADS-B
Thu 02:16:06 AM 37.6034 -121.9370 260° West 204 235 3,900 -522 Descending FlightAware ADS-B
Thu 02:16:21 AM 37.6012 -121.9550 261° West 195 224 3,800 -783 Descending FlightAware ADS-B
Thu 02:16:29 AM 37.6002 -121.9640 262° West 195 224 3,600 -1,286 Descending FlightAware ADS-B
Thu 02:16:35 AM 37.5997 -121.9700 264° West 195 224 3,500 -1,000 Descending FlightAware ADS-B
Thu 02:16:47 AM 37.5987 -121.9840 265° West 196 226 3,300 -1,111 Descending FlightAware ADS-B
Thu 02:17:02 AM 37.5979 -122.0010 267° West 194 223 3,000 -960 Descending FlightAware ADS-B
Thu 02:17:12 AM 37.5975 -122.0120 267° West 188 216 2,900 -947 Descending FlightAware ADS-B
Thu 02:17:21 AM 37.5976 -122.0210 271° West 186 214 2,700 -1,200 Descending FlightAware ADS-B
Thu 02:17:27 AM 37.5978 -122.0280 272° West 185 213 2,600 -900 Descending FlightAware ADS-B
Thu 02:17:41 AM 37.5988 -122.0430 275° West 182 209 2,400 -706 Descending FlightAware ADS-B
Thu 02:17:44 AM 37.5992 -122.0460 280° West 181 208 2,400  Level FlightAware ADS-B
Thu 02:17:49 AM 37.5999 -122.0520 278° West 181 208 2,400  Level FlightAware ADS-B
Thu 02:17:53 AM 37.6004 -122.0550 282° West 179 206 2,400  Level FlightAware ADS-B
Thu 02:17:56 AM 37.6012 -122.0590 284° West 177 204 2,400  Level FlightAware ADS-B
Thu 02:18:00 AM 37.6022 -122.0620 293° West 176 203 2,400  Level FlightAware ADS-B
Thu 02:18:04 AM 37.6039 -122.0660 298° West 176 203 2,400  Level FlightAware ADS-B
Thu 02:18:07 AM 37.6051 -122.0680 307° West 176 203 2,400  Level FlightAware ADS-B
Thu 02:18:10 AM 37.6068 -122.0710 306° West 176 203 2,400  Level FlightAware ADS-B
Thu 02:18:18 AM 37.6107 -122.0780 305° West 176 203 2,400 -250 Level FlightAware ADS-B
Thu 02:18:34 AM 37.6187 -122.0900 310° West 166 191 2,300 -563 Descending FlightAware ADS-B
Thu 02:18:50 AM 37.6259 -122.1010 310° West 153 176 2,100 -643 Descending FlightAware ADS-B
Thu 02:19:02 AM 37.6312 -122.1090 310° West 142 163 2,000 -783 Descending FlightAware ADS-B
Thu 02:19:13 AM 37.6358 -122.1160 310° West 139 160 1,800 -889 Descending FlightAware ADS-B
Thu 02:19:29 AM 37.6421 -122.1250 311° West 133 153 1,600 -692 Descending FlightAware ADS-B
Thu 02:19:39 AM 37.6460 -122.1310 309° West 131 151 1,500 -480 Descending FlightAware ADS-B
Thu 02:19:54 AM 37.6517 -122.1400 309° West 128 147 1,400 -563 Descending FlightAware ADS-B
Thu 02:20:11 AM 37.6585 -122.1500 311° West 127 146 1,200 -686 Descending FlightAware ADS-B
Thu 02:20:29 AM 37.6654 -122.1600 311° West 128 147 1,000 -706 Descending FlightAware ADS-B
Thu 02:20:45 AM 37.6712 -122.1690 309° West 127 146 800 -774 Descending FlightAware ADS-B
Thu 02:21:00 AM 37.6770 -122.1770 312° West 127 146 600 -581 Descending FlightAware ADS-B
Thu 02:21:16 AM 37.6831 -122.1870 308° West 127 146 500 -563 Descending FlightAware ADS-B
Thu 02:21:32 AM 37.6892 -122.1960 311° West 131 151 300 -750 Descending FlightAware ADS-B
Thu 02:22:03 AM 37.7010 -122.2140 310° West 129 148 -581 Descending FlightAware ADS-B
Thu 02:22:46 AM 37.7120 -122.2300 309° West 34 39  Level FlightAware ADS-B

Login

Don't have an account? Register now (free) for customized features, flight alerts, and more!